sensor_id;sensor_type;location;lat;lon;timestamp;P1;durP1;ratioP1;P2;durP2;ratioP2
38053;SDS011;23859;50.672;7.164;2023-02-28T00:01:20;9.63;;;2.92;;
38053;SDS011;23859;50.672;7.164;2023-02-28T00:03:47;4.40;;;2.50;;
38053;SDS011;23859;50.672;7.164;2023-02-28T00:06:13;5.03;;;3.03;;
38053;SDS011;23859;50.672;7.164;2023-02-28T00:08:39;6.47;;;2.50;;
38053;SDS011;23859;50.672;7.164;2023-02-28T00:11:07;7.13;;;2.95;;
38053;SDS011;23859;50.672;7.164;2023-02-28T00:13:35;6.50;;;2.90;;
38053;SDS011;23859;50.672;7.164;2023-02-28T00:16:03;5.10;;;2.85;;
38053;SDS011;23859;50.672;7.164;2023-02-28T00:18:31;7.85;;;3.22;;
38053;SDS011;23859;50.672;7.164;2023-02-28T00:20:58;3.83;;;2.90;;
38053;SDS011;23859;50.672;7.164;2023-02-28T00:23:24;8.45;;;3.05;;
38053;SDS011;23859;50.672;7.164;2023-02-28T00:25:51;5.53;;;2.92;;
38053;SDS011;23859;50.672;7.164;2023-02-28T00:28:18;4.05;;;2.63;;
38053;SDS011;23859;50.672;7.164;2023-02-28T00:30:44;6.72;;;3.60;;
38053;SDS011;23859;50.672;7.164;2023-02-28T00:33:10;3.40;;;2.78;;
38053;SDS011;23859;50.672;7.164;2023-02-28T00:35:37;6.25;;;2.97;;
38053;SDS011;23859;50.672;7.164;2023-02-28T00:38:03;8.38;;;3.20;;
38053;SDS011;23859;50.672;7.164;2023-02-28T00:40:29;9.90;;;3.00;;
38053;SDS011;23859;50.672;7.164;2023-02-28T00:42:55;7.00;;;3.50;;
38053;SDS011;23859;50.672;7.164;2023-02-28T00:45:21;7.93;;;2.92;;
38053;SDS011;23859;50.672;7.164;2023-02-28T00:47:47;5.80;;;3.22;;
38053;SDS011;23859;50.672;7.164;2023-02-28T00:50:16;6.63;;;3.67;;
38053;SDS011;23859;50.672;7.164;2023-02-28T00:52:43;4.30;;;2.58;;
38053;SDS011;23859;50.672;7.164;2023-02-28T00:55:10;5.93;;;2.83;;
38053;SDS011;23859;50.672;7.164;2023-02-28T00:57:36;6.20;;;2.72;;
38053;SDS011;23859;50.672;7.164;2023-02-28T01:00:02;5.25;;;2.78;;
38053;SDS011;23859;50.672;7.164;2023-02-28T01:02:29;7.97;;;2.88;;
38053;SDS011;23859;50.672;7.164;2023-02-28T01:04:55;4.80;;;3.10;;
38053;SDS011;23859;50.672;7.164;2023-02-28T01:07:24;6.40;;;2.85;;
38053;SDS011;23859;50.672;7.164;2023-02-28T01:09:50;4.68;;;2.90;;
38053;SDS011;23859;50.672;7.164;2023-02-28T01:12:16;3.67;;;3.13;;
38053;SDS011;23859;50.672;7.164;2023-02-28T01:14:42;5.53;;;2.85;;
38053;SDS011;23859;50.672;7.164;2023-02-28T01:17:08;6.78;;;2.78;;
38053;SDS011;23859;50.672;7.164;2023-02-28T01:19:35;7.90;;;3.00;;
38053;SDS011;23859;50.672;7.164;2023-02-28T01:22:01;6.38;;;2.90;;
38053;SDS011;23859;50.672;7.164;2023-02-28T01:24:28;5.57;;;2.88;;
38053;SDS011;23859;50.672;7.164;2023-02-28T01:26:54;4.43;;;2.15;;
38053;SDS011;23859;50.672;7.164;2023-02-28T01:29:20;4.70;;;2.67;;
38053;SDS011;23859;50.672;7.164;2023-02-28T01:31:46;5.65;;;2.92;;
38053;SDS011;23859;50.672;7.164;2023-02-28T01:34:12;7.15;;;2.83;;
38053;SDS011;23859;50.672;7.164;2023-02-28T01:36:38;5.85;;;3.00;;
38053;SDS011;23859;50.672;7.164;2023-02-28T01:39:05;5.57;;;3.38;;
38053;SDS011;23859;50.672;7.164;2023-02-28T01:41:32;9.25;;;3.38;;
38053;SDS011;23859;50.672;7.164;2023-02-28T01:44:06;4.72;;;2.90;;
38053;SDS011;23859;50.672;7.164;2023-02-28T01:46:52;7.50;;;3.88;;
38053;SDS011;23859;50.672;7.164;2023-02-28T01:49:18;7.35;;;3.40;;
38053;SDS011;23859;50.672;7.164;2023-02-28T01:51:46;6.88;;;2.75;;
38053;SDS011;23859;50.672;7.164;2023-02-28T01:54:22;6.00;;;3.38;;
38053;SDS011;23859;50.672;7.164;2023-02-28T01:56:57;11.18;;;4.25;;
38053;SDS011;23859;50.672;7.164;2023-02-28T01:59:42;7.53;;;3.67;;
38053;SDS011;23859;50.672;7.164;2023-02-28T02:02:21;10.75;;;3.67;;
38053;SDS011;23859;50.672;7.164;2023-02-28T02:04:56;7.47;;;3.95;;
38053;SDS011;23859;50.672;7.164;2023-02-28T02:07:33;5.50;;;3.47;;
38053;SDS011;23859;50.672;7.164;2023-02-28T02:10:10;6.68;;;3.60;;
38053;SDS011;23859;50.672;7.164;2023-02-28T02:12:53;9.55;;;4.80;;
38053;SDS011;23859;50.672;7.164;2023-02-28T02:18:23;4.72;;;3.22;;
38053;SDS011;23859;50.672;7.164;2023-02-28T02:24:02;10.88;;;3.28;;
38053;SDS011;23859;50.672;7.164;2023-02-28T02:26:47;4.90;;;2.92;;
38053;SDS011;23859;50.672;7.164;2023-02-28T02:32:13;7.55;;;4.43;;
38053;SDS011;23859;50.672;7.164;2023-02-28T02:34:58;6.38;;;3.58;;
38053;SDS011;23859;50.672;7.164;2023-02-28T02:37:43;8.32;;;3.28;;
38053;SDS011;23859;50.672;7.164;2023-02-28T02:40:19;5.22;;;3.70;;
38053;SDS011;23859;50.672;7.164;2023-02-28T02:43:01;8.40;;;3.78;;
38053;SDS011;23859;50.672;7.164;2023-02-28T02:45:45;7.35;;;3.75;;
38053;SDS011;23859;50.672;7.164;2023-02-28T02:48:20;8.30;;;5.57;;
38053;SDS011;23859;50.672;7.164;2023-02-28T02:50:52;5.22;;;3.72;;
38053;SDS011;23859;50.672;7.164;2023-02-28T02:53:33;4.97;;;3.20;;
38053;SDS011;23859;50.672;7.164;2023-02-28T02:56:04;5.32;;;2.67;;
38053;SDS011;23859;50.672;7.164;2023-02-28T02:58:34;5.22;;;3.38;;
38053;SDS011;23859;50.672;7.164;2023-02-28T03:01:07;5.47;;;2.83;;
38053;SDS011;23859;50.672;7.164;2023-02-28T03:03:36;5.60;;;3.30;;
38053;SDS011;23859;50.672;7.164;2023-02-28T03:06:03;6.00;;;3.63;;
38053;SDS011;23859;50.672;7.164;2023-02-28T03:08:33;8.02;;;3.67;;
38053;SDS011;23859;50.672;7.164;2023-02-28T03:11:05;5.88;;;3.22;;
38053;SDS011;23859;50.672;7.164;2023-02-28T03:13:42;6.10;;;3.30;;
38053;SDS011;23859;50.672;7.164;2023-02-28T03:16:36;8.57;;;3.08;;
38053;SDS011;23859;50.672;7.164;2023-02-28T03:19:18;6.63;;;3.20;;
38053;SDS011;23859;50.672;7.164;2023-02-28T03:24:49;4.93;;;3.20;;
38053;SDS011;23859;50.672;7.164;2023-02-28T03:27:28;5.50;;;3.20;;
38053;SDS011;23859;50.672;7.164;2023-02-28T03:30:04;8.02;;;4.13;;
38053;SDS011;23859;50.672;7.164;2023-02-28T03:32:54;6.57;;;3.30;;
38053;SDS011;23859;50.672;7.164;2023-02-28T03:35:26;7.00;;;3.35;;
38053;SDS011;23859;50.672;7.164;2023-02-28T03:37:59;4.28;;;3.47;;
38053;SDS011;23859;50.672;7.164;2023-02-28T03:40:39;5.40;;;3.75;;
38053;SDS011;23859;50.672;7.164;2023-02-28T03:43:11;6.03;;;3.70;;
38053;SDS011;23859;50.672;7.164;2023-02-28T03:45:42;9.07;;;3.58;;
38053;SDS011;23859;50.672;7.164;2023-02-28T03:48:13;7.40;;;3.42;;
38053;SDS011;23859;50.672;7.164;2023-02-28T03:50:55;4.38;;;2.92;;
38053;SDS011;23859;50.672;7.164;2023-02-28T03:53:37;4.32;;;3.20;;
38053;SDS011;23859;50.672;7.164;2023-02-28T03:56:09;6.25;;;4.00;;
38053;SDS011;23859;50.672;7.164;2023-02-28T04:01:28;8.23;;;3.75;;
38053;SDS011;23859;50.672;7.164;2023-02-28T04:04:02;6.53;;;4.35;;
38053;SDS011;23859;50.672;7.164;2023-02-28T04:06:31;5.53;;;3.50;;
38053;SDS011;23859;50.672;7.164;2023-02-28T04:09:02;6.95;;;2.60;;
38053;SDS011;23859;50.672;7.164;2023-02-28T04:11:40;4.65;;;2.95;;
38053;SDS011;23859;50.672;7.164;2023-02-28T04:14:09;5.22;;;2.83;;
38053;SDS011;23859;50.672;7.164;2023-02-28T04:16:37;5.57;;;2.85;;
38053;SDS011;23859;50.672;7.164;2023-02-28T04:19:05;8.82;;;3.78;;
38053;SDS011;23859;50.672;7.164;2023-02-28T04:21:33;5.30;;;3.40;;
38053;SDS011;23859;50.672;7.164;2023-02-28T04:24:01;5.60;;;3.25;;
38053;SDS011;23859;50.672;7.164;2023-02-28T04:26:32;5.80;;;2.97;;
38053;SDS011;23859;50.672;7.164;2023-02-28T04:29:00;4.60;;;3.50;;
38053;SDS011;23859;50.672;7.164;2023-02-28T04:31:32;4.97;;;3.20;;
38053;SDS011;23859;50.672;7.164;2023-02-28T04:33:58;5.07;;;3.58;;
38053;SDS011;23859;50.672;7.164;2023-02-28T04:36:25;7.15;;;4.28;;
38053;SDS011;23859;50.672;7.164;2023-02-28T04:38:52;6.38;;;3.40;;
38053;SDS011;23859;50.672;7.164;2023-02-28T04:41:18;5.72;;;4.07;;
38053;SDS011;23859;50.672;7.164;2023-02-28T04:43:44;4.22;;;2.88;;
38053;SDS011;23859;50.672;7.164;2023-02-28T04:46:10;4.18;;;2.70;;
38053;SDS011;23859;50.672;7.164;2023-02-28T04:48:37;3.65;;;2.63;;
38053;SDS011;23859;50.672;7.164;2023-02-28T04:51:05;6.05;;;3.03;;
38053;SDS011;23859;50.672;7.164;2023-02-28T04:53:33;4.10;;;3.58;;
38053;SDS011;23859;50.672;7.164;2023-02-28T04:56:01;5.10;;;2.60;;
38053;SDS011;23859;50.672;7.164;2023-02-28T04:58:27;6.20;;;4.15;;
38053;SDS011;23859;50.672;7.164;2023-02-28T05:00:57;5.10;;;3.40;;
38053;SDS011;23859;50.672;7.164;2023-02-28T05:05:54;4.55;;;3.95;;
38053;SDS011;23859;50.672;7.164;2023-02-28T05:08:20;3.30;;;2.78;;
38053;SDS011;23859;50.672;7.164;2023-02-28T05:10:46;8.38;;;2.83;;
38053;SDS011;23859;50.672;7.164;2023-02-28T05:13:12;6.30;;;3.80;;
38053;SDS011;23859;50.672;7.164;2023-02-28T05:15:38;5.05;;;2.85;;
38053;SDS011;23859;50.672;7.164;2023-02-28T05:18:04;6.75;;;2.95;;
38053;SDS011;23859;50.672;7.164;2023-02-28T05:20:30;6.70;;;2.97;;
38053;SDS011;23859;50.672;7.164;2023-02-28T05:22:57;6.05;;;3.38;;
38053;SDS011;23859;50.672;7.164;2023-02-28T05:25:24;3.97;;;3.10;;
38053;SDS011;23859;50.672;7.164;2023-02-28T05:27:50;4.85;;;3.28;;
38053;SDS011;23859;50.672;7.164;2023-02-28T05:30:16;4.07;;;3.13;;
38053;SDS011;23859;50.672;7.164;2023-02-28T05:32:42;6.00;;;3.10;;
38053;SDS011;23859;50.672;7.164;2023-02-28T05:35:09;5.00;;;3.53;;
38053;SDS011;23859;50.672;7.164;2023-02-28T05:37:36;4.78;;;3.38;;
38053;SDS011;23859;50.672;7.164;2023-02-28T05:40:03;5.18;;;3.10;;
38053;SDS011;23859;50.672;7.164;2023-02-28T05:42:35;7.93;;;3.22;;
38053;SDS011;23859;50.672;7.164;2023-02-28T05:45:01;10.95;;;4.03;;
38053;SDS011;23859;50.672;7.164;2023-02-28T05:47:28;7.30;;;4.30;;
38053;SDS011;23859;50.672;7.164;2023-02-28T05:49:54;5.32;;;3.53;;
38053;SDS011;23859;50.672;7.164;2023-02-28T05:52:20;5.93;;;3.33;;
38053;SDS011;23859;50.672;7.164;2023-02-28T05:54:46;6.82;;;4.03;;
38053;SDS011;23859;50.672;7.164;2023-02-28T05:57:12;6.90;;;3.80;;
38053;SDS011;23859;50.672;7.164;2023-02-28T05:59:40;5.65;;;3.55;;
38053;SDS011;23859;50.672;7.164;2023-02-28T06:02:06;7.15;;;3.60;;
38053;SDS011;23859;50.672;7.164;2023-02-28T06:04:40;5.03;;;3.67;;
38053;SDS011;23859;50.672;7.164;2023-02-28T06:07:07;12.23;;;4.07;;
38053;SDS011;23859;50.672;7.164;2023-02-28T06:09:33;9.18;;;3.80;;
38053;SDS011;23859;50.672;7.164;2023-02-28T06:12:00;10.20;;;4.75;;
38053;SDS011;23859;50.672;7.164;2023-02-28T06:14:31;6.28;;;4.22;;
38053;SDS011;23859;50.672;7.164;2023-02-28T06:16:58;8.75;;;4.68;;
38053;SDS011;23859;50.672;7.164;2023-02-28T06:19:25;5.70;;;3.78;;
38053;SDS011;23859;50.672;7.164;2023-02-28T06:21:52;8.57;;;4.43;;
38053;SDS011;23859;50.672;7.164;2023-02-28T06:24:19;5.90;;;4.00;;
38053;SDS011;23859;50.672;7.164;2023-02-28T06:26:46;10.40;;;5.18;;
38053;SDS011;23859;50.672;7.164;2023-02-28T06:29:12;7.25;;;4.13;;
38053;SDS011;23859;50.672;7.164;2023-02-28T06:31:41;8.70;;;3.63;;
38053;SDS011;23859;50.672;7.164;2023-02-28T06:34:08;7.75;;;4.78;;
38053;SDS011;23859;50.672;7.164;2023-02-28T06:36:36;8.18;;;4.90;;
38053;SDS011;23859;50.672;7.164;2023-02-28T06:39:03;6.70;;;4.80;;
38053;SDS011;23859;50.672;7.164;2023-02-28T06:41:29;9.23;;;4.78;;
38053;SDS011;23859;50.672;7.164;2023-02-28T06:43:55;6.30;;;4.05;;
38053;SDS011;23859;50.672;7.164;2023-02-28T06:46:22;6.05;;;3.65;;
38053;SDS011;23859;50.672;7.164;2023-02-28T06:48:48;10.65;;;4.50;;
38053;SDS011;23859;50.672;7.164;2023-02-28T06:51:16;7.30;;;4.88;;
38053;SDS011;23859;50.672;7.164;2023-02-28T06:53:45;8.40;;;5.70;;
38053;SDS011;23859;50.672;7.164;2023-02-28T06:56:12;6.90;;;4.20;;
38053;SDS011;23859;50.672;7.164;2023-02-28T06:58:39;12.05;;;4.82;;
38053;SDS011;23859;50.672;7.164;2023-02-28T07:01:06;7.88;;;4.05;;
38053;SDS011;23859;50.672;7.164;2023-02-28T07:03:34;6.75;;;4.45;;
38053;SDS011;23859;50.672;7.164;2023-02-28T07:06:00;8.45;;;4.03;;
38053;SDS011;23859;50.672;7.164;2023-02-28T07:08:26;5.97;;;4.38;;
38053;SDS011;23859;50.672;7.164;2023-02-28T07:10:53;7.93;;;4.05;;
38053;SDS011;23859;50.672;7.164;2023-02-28T07:13:20;6.15;;;3.90;;
38053;SDS011;23859;50.672;7.164;2023-02-28T07:15:59;6.47;;;4.40;;
38053;SDS011;23859;50.672;7.164;2023-02-28T07:18:26;8.02;;;4.55;;
38053;SDS011;23859;50.672;7.164;2023-02-28T07:20:53;9.70;;;4.90;;
38053;SDS011;23859;50.672;7.164;2023-02-28T07:23:19;6.57;;;4.57;;
38053;SDS011;23859;50.672;7.164;2023-02-28T07:25:46;9.48;;;4.65;;
38053;SDS011;23859;50.672;7.164;2023-02-28T07:28:12;6.07;;;3.83;;
38053;SDS011;23859;50.672;7.164;2023-02-28T07:30:39;9.93;;;6.30;;
38053;SDS011;23859;50.672;7.164;2023-02-28T07:33:05;5.30;;;4.00;;
38053;SDS011;23859;50.672;7.164;2023-02-28T07:35:31;8.40;;;4.00;;
38053;SDS011;23859;50.672;7.164;2023-02-28T07:37:58;4.20;;;3.80;;
38053;SDS011;23859;50.672;7.164;2023-02-28T07:40:24;7.43;;;3.65;;
38053;SDS011;23859;50.672;7.164;2023-02-28T07:42:50;6.30;;;3.92;;
38053;SDS011;23859;50.672;7.164;2023-02-28T07:45:16;9.43;;;3.28;;
38053;SDS011;23859;50.672;7.164;2023-02-28T07:47:44;5.25;;;3.25;;
38053;SDS011;23859;50.672;7.164;2023-02-28T07:50:11;5.50;;;3.80;;
38053;SDS011;23859;50.672;7.164;2023-02-28T07:52:39;6.20;;;3.47;;
38053;SDS011;23859;50.672;7.164;2023-02-28T07:55:06;4.05;;;3.22;;
38053;SDS011;23859;50.672;7.164;2023-02-28T07:57:34;4.35;;;3.30;;
38053;SDS011;23859;50.672;7.164;2023-02-28T08:00:01;5.30;;;3.45;;
38053;SDS011;23859;50.672;7.164;2023-02-28T08:02:30;5.15;;;3.50;;
38053;SDS011;23859;50.672;7.164;2023-02-28T08:04:56;7.43;;;3.95;;
38053;SDS011;23859;50.672;7.164;2023-02-28T08:07:22;5.90;;;3.38;;
38053;SDS011;23859;50.672;7.164;2023-02-28T08:09:48;4.35;;;3.47;;
38053;SDS011;23859;50.672;7.164;2023-02-28T08:12:15;4.65;;;3.20;;
38053;SDS011;23859;50.672;7.164;2023-02-28T08:14:41;4.30;;;3.28;;
38053;SDS011;23859;50.672;7.164;2023-02-28T08:17:07;3.42;;;2.90;;
38053;SDS011;23859;50.672;7.164;2023-02-28T08:19:34;5.43;;;3.08;;
38053;SDS011;23859;50.672;7.164;2023-02-28T08:22:00;4.53;;;2.85;;
38053;SDS011;23859;50.672;7.164;2023-02-28T08:24:26;3.72;;;2.50;;
38053;SDS011;23859;50.672;7.164;2023-02-28T08:26:53;3.92;;;2.78;;
38053;SDS011;23859;50.672;7.164;2023-02-28T08:29:19;6.88;;;3.42;;
38053;SDS011;23859;50.672;7.164;2023-02-28T08:31:45;3.70;;;2.83;;
38053;SDS011;23859;50.672;7.164;2023-02-28T08:34:12;4.53;;;3.35;;
38053;SDS011;23859;50.672;7.164;2023-02-28T08:36:40;3.35;;;2.50;;
38053;SDS011;23859;50.672;7.164;2023-02-28T08:39:08;4.70;;;2.90;;
38053;SDS011;23859;50.672;7.164;2023-02-28T08:41:34;4.15;;;3.15;;
38053;SDS011;23859;50.672;7.164;2023-02-28T08:44:01;3.80;;;3.10;;
38053;SDS011;23859;50.672;7.164;2023-02-28T08:46:27;3.88;;;2.78;;
38053;SDS011;23859;50.672;7.164;2023-02-28T08:48:54;3.50;;;2.78;;
38053;SDS011;23859;50.672;7.164;2023-02-28T08:51:24;5.50;;;2.60;;
38053;SDS011;23859;50.672;7.164;2023-02-28T08:53:53;3.67;;;3.05;;
38053;SDS011;23859;50.672;7.164;2023-02-28T08:56:22;4.28;;;2.92;;
38053;SDS011;23859;50.672;7.164;2023-02-28T08:58:49;6.50;;;2.92;;
38053;SDS011;23859;50.672;7.164;2023-02-28T09:01:19;3.97;;;2.28;;
38053;SDS011;23859;50.672;7.164;2023-02-28T09:03:49;4.50;;;2.78;;
38053;SDS011;23859;50.672;7.164;2023-02-28T09:06:17;3.35;;;2.60;;
38053;SDS011;23859;50.672;7.164;2023-02-28T09:08:44;3.65;;;2.30;;
38053;SDS011;23859;50.672;7.164;2023-02-28T09:11:10;4.72;;;2.40;;
38053;SDS011;23859;50.672;7.164;2023-02-28T09:13:37;3.58;;;1.95;;
38053;SDS011;23859;50.672;7.164;2023-02-28T09:16:04;5.93;;;2.90;;
38053;SDS011;23859;50.672;7.164;2023-02-28T09:18:34;3.28;;;2.30;;
38053;SDS011;23859;50.672;7.164;2023-02-28T09:21:03;5.30;;;2.67;;
38053;SDS011;23859;50.672;7.164;2023-02-28T09:23:30;7.15;;;2.38;;
38053;SDS011;23859;50.672;7.164;2023-02-28T09:25:56;4.30;;;3.05;;
38053;SDS011;23859;50.672;7.164;2023-02-28T09:28:22;4.28;;;2.97;;
38053;SDS011;23859;50.672;7.164;2023-02-28T09:30:50;4.75;;;3.17;;
38053;SDS011;23859;50.672;7.164;2023-02-28T09:33:18;5.18;;;2.63;;
38053;SDS011;23859;50.672;7.164;2023-02-28T09:35:48;2.92;;;2.63;;
38053;SDS011;23859;50.672;7.164;2023-02-28T09:38:15;4.70;;;2.65;;
38053;SDS011;23859;50.672;7.164;2023-02-28T09:40:58;7.57;;;2.40;;
38053;SDS011;23859;50.672;7.164;2023-02-28T09:43:28;2.97;;;2.42;;
38053;SDS011;23859;50.672;7.164;2023-02-28T09:48:33;2.42;;;2.03;;
38053;SDS011;23859;50.672;7.164;2023-02-28T09:51:03;2.95;;;2.47;;
38053;SDS011;23859;50.672;7.164;2023-02-28T09:53:35;3.97;;;2.53;;
38053;SDS011;23859;50.672;7.164;2023-02-28T09:56:05;3.78;;;2.05;;
38053;SDS011;23859;50.672;7.164;2023-02-28T09:58:42;5.63;;;2.50;;
38053;SDS011;23859;50.672;7.164;2023-02-28T10:01:33;2.25;;;1.88;;
38053;SDS011;23859;50.672;7.164;2023-02-28T10:06:44;4.32;;;2.58;;
38053;SDS011;23859;50.672;7.164;2023-02-28T10:09:19;5.07;;;2.25;;
38053;SDS011;23859;50.672;7.164;2023-02-28T10:14:20;3.38;;;2.55;;
38053;SDS011;23859;50.672;7.164;2023-02-28T10:17:02;3.53;;;2.23;;
38053;SDS011;23859;50.672;7.164;2023-02-28T10:19:53;5.32;;;2.47;;
38053;SDS011;23859;50.672;7.164;2023-02-28T10:25:05;3.03;;;2.53;;
38053;SDS011;23859;50.672;7.164;2023-02-28T10:27:43;3.90;;;2.28;;
38053;SDS011;23859;50.672;7.164;2023-02-28T10:30:10;4.32;;;2.63;;
38053;SDS011;23859;50.672;7.164;2023-02-28T10:32:38;5.03;;;3.00;;
38053;SDS011;23859;50.672;7.164;2023-02-28T10:37:39;6.93;;;2.70;;
38053;SDS011;23859;50.672;7.164;2023-02-28T10:40:52;6.40;;;2.80;;
38053;SDS011;23859;50.672;7.164;2023-02-28T10:42:56;4.38;;;2.20;;
38053;SDS011;23859;50.672;7.164;2023-02-28T10:45:37;5.38;;;2.28;;
38053;SDS011;23859;50.672;7.164;2023-02-28T10:48:05;2.60;;;1.90;;
38053;SDS011;23859;50.672;7.164;2023-02-28T10:50:37;5.18;;;2.65;;
38053;SDS011;23859;50.672;7.164;2023-02-28T10:56:34;4.70;;;2.38;;
38053;SDS011;23859;50.672;7.164;2023-02-28T11:01:35;2.55;;;1.90;;
38053;SDS011;23859;50.672;7.164;2023-02-28T11:07:36;3.20;;;1.88;;
38053;SDS011;23859;50.672;7.164;2023-02-28T11:09:46;3.40;;;2.20;;
38053;SDS011;23859;50.672;7.164;2023-02-28T11:14:59;3.15;;;2.53;;
38053;SDS011;23859;50.672;7.164;2023-02-28T11:17:31;3.63;;;2.35;;
38053;SDS011;23859;50.672;7.164;2023-02-28T11:19:58;3.47;;;2.80;;
38053;SDS011;23859;50.672;7.164;2023-02-28T11:22:32;3.47;;;2.63;;
38053;SDS011;23859;50.672;7.164;2023-02-28T11:25:07;4.45;;;2.88;;
38053;SDS011;23859;50.672;7.164;2023-02-28T11:27:51;3.88;;;2.38;;
38053;SDS011;23859;50.672;7.164;2023-02-28T11:32:53;3.70;;;2.70;;
38053;SDS011;23859;50.672;7.164;2023-02-28T11:35:33;3.67;;;2.25;;
38053;SDS011;23859;50.672;7.164;2023-02-28T11:38:05;3.55;;;2.58;;
38053;SDS011;23859;50.672;7.164;2023-02-28T11:43:46;4.22;;;2.50;;
38053;SDS011;23859;50.672;7.164;2023-02-28T11:46:31;2.42;;;2.22;;
38053;SDS011;23859;50.672;7.164;2023-02-28T11:49:21;3.95;;;2.70;;
38053;SDS011;23859;50.672;7.164;2023-02-28T11:52:10;3.38;;;2.38;;
38053;SDS011;23859;50.672;7.164;2023-02-28T12:00:25;2.38;;;2.17;;
38053;SDS011;23859;50.672;7.164;2023-02-28T12:08:36;3.67;;;2.65;;
38053;SDS011;23859;50.672;7.164;2023-02-28T12:11:34;4.32;;;2.47;;
38053;SDS011;23859;50.672;7.164;2023-02-28T12:25:58;5.22;;;3.10;;
38053;SDS011;23859;50.672;7.164;2023-02-28T12:28:21;8.77;;;2.60;;
38053;SDS011;23859;50.672;7.164;2023-02-28T12:30:56;3.53;;;2.65;;
38053;SDS011;23859;50.672;7.164;2023-02-28T12:36:10;4.88;;;3.13;;
38053;SDS011;23859;50.672;7.164;2023-02-28T12:38:49;5.47;;;2.95;;
38053;SDS011;23859;50.672;7.164;2023-02-28T12:41:31;2.95;;;2.67;;
38053;SDS011;23859;50.672;7.164;2023-02-28T12:44:22;4.43;;;2.88;;
38053;SDS011;23859;50.672;7.164;2023-02-28T12:46:59;3.47;;;2.50;;
38053;SDS011;23859;50.672;7.164;2023-02-28T12:50:04;3.50;;;2.55;;
38053;SDS011;23859;50.672;7.164;2023-02-28T12:52:28;7.15;;;2.47;;
38053;SDS011;23859;50.672;7.164;2023-02-28T12:58:14;5.25;;;2.55;;
38053;SDS011;23859;50.672;7.164;2023-02-28T13:00:34;4.47;;;2.63;;
38053;SDS011;23859;50.672;7.164;2023-02-28T13:13:56;4.50;;;2.95;;
38053;SDS011;23859;50.672;7.164;2023-02-28T13:18:50;5.60;;;2.42;;
38053;SDS011;23859;50.672;7.164;2023-02-28T13:21:24;6.32;;;2.97;;
38053;SDS011;23859;50.672;7.164;2023-02-28T13:26:32;4.55;;;2.63;;
38053;SDS011;23859;50.672;7.164;2023-02-28T13:34:33;6.05;;;2.85;;
38053;SDS011;23859;50.672;7.164;2023-02-28T13:47:28;5.68;;;3.25;;
38053;SDS011;23859;50.672;7.164;2023-02-28T13:55:24;3.75;;;3.03;;
38053;SDS011;23859;50.672;7.164;2023-02-28T14:11:41;4.93;;;3.40;;
38053;SDS011;23859;50.672;7.164;2023-02-28T14:14:09;6.55;;;3.38;;
38053;SDS011;23859;50.672;7.164;2023-02-28T14:16:55;5.70;;;3.30;;
38053;SDS011;23859;50.672;7.164;2023-02-28T14:19:25;4.15;;;3.10;;
38053;SDS011;23859;50.672;7.164;2023-02-28T14:27:54;4.38;;;3.28;;
38053;SDS011;23859;50.672;7.164;2023-02-28T14:33:42;5.47;;;3.63;;
38053;SDS011;23859;50.672;7.164;2023-02-28T14:36:37;4.00;;;3.20;;
38053;SDS011;23859;50.672;7.164;2023-02-28T14:39:06;6.97;;;3.63;;
38053;SDS011;23859;50.672;7.164;2023-02-28T14:41:38;4.85;;;3.30;;
38053;SDS011;23859;50.672;7.164;2023-02-28T14:46:43;5.88;;;3.50;;
38053;SDS011;23859;50.672;7.164;2023-02-28T14:49:19;5.35;;;3.70;;
38053;SDS011;23859;50.672;7.164;2023-02-28T14:51:50;5.43;;;3.63;;
38053;SDS011;23859;50.672;7.164;2023-02-28T14:54:26;5.47;;;3.90;;
38053;SDS011;23859;50.672;7.164;2023-02-28T14:56:53;8.07;;;4.05;;
38053;SDS011;23859;50.672;7.164;2023-02-28T14:59:27;4.10;;;3.40;;
38053;SDS011;23859;50.672;7.164;2023-02-28T15:02:18;6.13;;;4.18;;
38053;SDS011;23859;50.672;7.164;2023-02-28T15:05:00;4.05;;;3.30;;
38053;SDS011;23859;50.672;7.164;2023-02-28T15:07:41;4.97;;;4.30;;
38053;SDS011;23859;50.672;7.164;2023-02-28T15:12:47;4.70;;;4.00;;
38053;SDS011;23859;50.672;7.164;2023-02-28T15:15:17;6.60;;;4.32;;
38053;SDS011;23859;50.672;7.164;2023-02-28T15:17:48;5.13;;;4.15;;
38053;SDS011;23859;50.672;7.164;2023-02-28T15:20:18;8.32;;;4.53;;
38053;SDS011;23859;50.672;7.164;2023-02-28T15:22:45;6.45;;;4.68;;
38053;SDS011;23859;50.672;7.164;2023-02-28T15:25:15;7.38;;;4.65;;
38053;SDS011;23859;50.672;7.164;2023-02-28T15:27:46;5.35;;;4.13;;
38053;SDS011;23859;50.672;7.164;2023-02-28T15:30:16;7.07;;;4.60;;
38053;SDS011;23859;50.672;7.164;2023-02-28T15:35:38;6.53;;;4.32;;
38053;SDS011;23859;50.672;7.164;2023-02-28T15:38:18;8.32;;;4.50;;
38053;SDS011;23859;50.672;7.164;2023-02-28T15:40:51;7.30;;;4.88;;
38053;SDS011;23859;50.672;7.164;2023-02-28T15:43:35;7.80;;;4.15;;
38053;SDS011;23859;50.672;7.164;2023-02-28T15:48:37;5.20;;;4.20;;
38053;SDS011;23859;50.672;7.164;2023-02-28T15:51:20;8.45;;;4.43;;
38053;SDS011;23859;50.672;7.164;2023-02-28T15:56:25;8.63;;;4.60;;
38053;SDS011;23859;50.672;7.164;2023-02-28T15:58:54;6.85;;;4.25;;
38053;SDS011;23859;50.672;7.164;2023-02-28T16:01:25;12.02;;;5.20;;
38053;SDS011;23859;50.672;7.164;2023-02-28T16:03:55;7.85;;;4.82;;
38053;SDS011;23859;50.672;7.164;2023-02-28T16:09:13;5.68;;;4.32;;
38053;SDS011;23859;50.672;7.164;2023-02-28T16:11:45;6.10;;;4.38;;
38053;SDS011;23859;50.672;7.164;2023-02-28T16:14:19;8.25;;;5.47;;
38053;SDS011;23859;50.672;7.164;2023-02-28T16:16:51;7.72;;;4.70;;
38053;SDS011;23859;50.672;7.164;2023-02-28T16:19:21;6.15;;;4.63;;
38053;SDS011;23859;50.672;7.164;2023-02-28T16:21:48;6.55;;;5.45;;
38053;SDS011;23859;50.672;7.164;2023-02-28T16:24:14;8.05;;;5.45;;
38053;SDS011;23859;50.672;7.164;2023-02-28T16:26:40;6.97;;;4.53;;
38053;SDS011;23859;50.672;7.164;2023-02-28T16:29:12;6.68;;;4.50;;
38053;SDS011;23859;50.672;7.164;2023-02-28T16:32:00;8.32;;;4.82;;
38053;SDS011;23859;50.672;7.164;2023-02-28T16:34:29;6.82;;;3.88;;
38053;SDS011;23859;50.672;7.164;2023-02-28T16:36:55;6.63;;;4.60;;
38053;SDS011;23859;50.672;7.164;2023-02-28T16:39:21;5.90;;;3.88;;
38053;SDS011;23859;50.672;7.164;2023-02-28T16:41:48;6.60;;;4.13;;
38053;SDS011;23859;50.672;7.164;2023-02-28T16:46:55;7.50;;;4.15;;
38053;SDS011;23859;50.672;7.164;2023-02-28T16:49:21;4.45;;;3.78;;
38053;SDS011;23859;50.672;7.164;2023-02-28T16:51:47;7.15;;;4.22;;
38053;SDS011;23859;50.672;7.164;2023-02-28T16:54:13;6.63;;;4.65;;
38053;SDS011;23859;50.672;7.164;2023-02-28T16:56:40;8.88;;;4.65;;
38053;SDS011;23859;50.672;7.164;2023-02-28T16:59:10;9.05;;;4.28;;
38053;SDS011;23859;50.672;7.164;2023-02-28T17:01:37;8.60;;;4.60;;
38053;SDS011;23859;50.672;7.164;2023-02-28T17:04:03;6.60;;;4.82;;
38053;SDS011;23859;50.672;7.164;2023-02-28T17:06:29;10.88;;;5.32;;
38053;SDS011;23859;50.672;7.164;2023-02-28T17:08:56;5.95;;;4.25;;
38053;SDS011;23859;50.672;7.164;2023-02-28T17:11:24;6.72;;;4.05;;
38053;SDS011;23859;50.672;7.164;2023-02-28T17:13:50;8.27;;;4.63;;
38053;SDS011;23859;50.672;7.164;2023-02-28T17:16:29;6.78;;;4.57;;
38053;SDS011;23859;50.672;7.164;2023-02-28T17:18:58;6.43;;;4.45;;
38053;SDS011;23859;50.672;7.164;2023-02-28T17:21:27;6.82;;;4.75;;
38053;SDS011;23859;50.672;7.164;2023-02-28T17:23:53;7.38;;;4.25;;
38053;SDS011;23859;50.672;7.164;2023-02-28T17:26:20;6.72;;;4.28;;
38053;SDS011;23859;50.672;7.164;2023-02-28T17:28:47;6.85;;;4.68;;
38053;SDS011;23859;50.672;7.164;2023-02-28T17:31:14;6.60;;;4.38;;
38053;SDS011;23859;50.672;7.164;2023-02-28T17:33:40;9.30;;;4.63;;
38053;SDS011;23859;50.672;7.164;2023-02-28T17:36:06;7.25;;;4.57;;
38053;SDS011;23859;50.672;7.164;2023-02-28T17:38:37;10.70;;;5.03;;
38053;SDS011;23859;50.672;7.164;2023-02-28T17:41:04;8.60;;;5.00;;
38053;SDS011;23859;50.672;7.164;2023-02-28T17:43:30;10.00;;;5.90;;